createdAt,value
2022-10-05T00:00:18.953Z,3.00
2022-10-05T00:02:47.088Z,2.35
2022-10-05T00:05:22.136Z,2.40
2022-10-05T00:07:49.137Z,2.67
2022-10-05T00:10:17.525Z,2.67
2022-10-05T00:12:45.811Z,2.60
2022-10-05T00:15:14.701Z,2.75
2022-10-05T00:17:42.526Z,2.25
2022-10-05T00:20:20.802Z,2.92
2022-10-05T00:22:48.320Z,2.38
2022-10-05T00:25:17.470Z,2.85
2022-10-05T00:27:46.436Z,2.42
2022-10-05T00:30:18.229Z,2.72
2022-10-05T00:32:46.061Z,2.72
2022-10-05T00:35:14.741Z,2.58
2022-10-05T00:37:42.700Z,2.45
2022-10-05T00:40:19.657Z,3.03
2022-10-05T00:43:02.792Z,2.90
2022-10-05T00:45:53.332Z,3.00
2022-10-05T00:48:23.823Z,2.70
2022-10-05T00:50:51.846Z,2.53
2022-10-05T00:53:25.240Z,2.72
2022-10-05T00:56:00.942Z,2.90
2022-10-05T00:58:28.109Z,3.03
2022-10-05T01:01:01.581Z,3.58
2022-10-05T01:03:47.523Z,3.20
2022-10-05T01:06:17.824Z,2.83
2022-10-05T01:08:48.163Z,3.00
2022-10-05T01:11:26.882Z,3.10
2022-10-05T01:14:16.668Z,3.17
2022-10-05T01:16:50.188Z,3.03
2022-10-05T01:19:32.908Z,3.67
2022-10-05T01:22:05.110Z,3.60
2022-10-05T01:24:50.289Z,3.35
2022-10-05T01:27:17.445Z,3.30
2022-10-05T01:29:50.301Z,3.13
2022-10-05T01:32:29.769Z,3.38
2022-10-05T01:35:17.267Z,3.05
2022-10-05T01:37:47.506Z,2.78
2022-10-05T01:40:14.741Z,2.83
2022-10-05T01:42:47.983Z,3.28
2022-10-05T01:45:19.856Z,3.85
2022-10-05T01:47:49.856Z,3.05
2022-10-05T01:50:22.849Z,3.58
2022-10-05T01:53:12.923Z,3.88
2022-10-05T01:55:44.057Z,3.05
2022-10-05T01:58:29.684Z,3.13
2022-10-05T02:01:15.838Z,3.65
2022-10-05T02:03:46.311Z,2.95
2022-10-05T02:06:13.542Z,3.70
2022-10-05T02:08:55.541Z,3.25
2022-10-05T02:11:22.875Z,3.15
2022-10-05T02:14:01.020Z,3.13
2022-10-05T02:16:48.104Z,3.33
2022-10-05T02:19:18.618Z,3.30
2022-10-05T02:21:48.207Z,3.38
2022-10-05T02:24:22.613Z,3.17
2022-10-05T02:26:51.771Z,3.63
2022-10-05T02:29:23.252Z,3.20
2022-10-05T02:31:54.372Z,3.53
2022-10-05T02:34:23.616Z,3.38
2022-10-05T02:37:12.737Z,3.30
2022-10-05T02:39:46.040Z,3.20
2022-10-05T02:42:16.724Z,3.17
2022-10-05T02:44:50.164Z,3.65
2022-10-05T02:47:40.935Z,3.17
2022-10-05T02:50:17.443Z,3.03
2022-10-05T02:52:51.981Z,3.67
2022-10-05T02:55:43.043Z,3.40
2022-10-05T02:58:14.826Z,2.90
2022-10-05T03:00:49.825Z,3.17
2022-10-05T03:03:20.519Z,3.55
2022-10-05T03:05:51.729Z,3.47
2022-10-05T03:08:27.107Z,3.63
2022-10-05T03:11:13.528Z,3.30
2022-10-05T03:13:59.727Z,3.13
2022-10-05T03:16:47.811Z,3.22
2022-10-05T03:19:18.617Z,3.03
2022-10-05T03:21:55.296Z,3.50
2022-10-05T03:24:35.446Z,2.90
2022-10-05T03:27:23.218Z,2.95
2022-10-05T03:29:57.538Z,2.88
2022-10-05T03:32:31.197Z,3.10
2022-10-05T03:35:11.087Z,2.85
2022-10-05T03:37:59.936Z,2.97
2022-10-05T03:40:30.997Z,2.75
2022-10-05T03:43:17.329Z,3.35
2022-10-05T03:45:53.838Z,3.17
2022-10-05T03:48:30.047Z,3.40
2022-10-05T03:51:06.819Z,3.30
2022-10-05T03:53:46.595Z,3.13
2022-10-05T03:56:20.141Z,3.38
2022-10-05T03:58:54.698Z,3.45
2022-10-05T04:01:26.206Z,3.15
2022-10-05T04:03:57.720Z,3.13
2022-10-05T04:06:27.133Z,3.13
2022-10-05T04:09:07.633Z,3.72
2022-10-05T04:11:58.389Z,3.58
2022-10-05T04:14:34.640Z,3.25
2022-10-05T04:17:06.175Z,3.92
2022-10-05T04:19:37.754Z,3.63
2022-10-05T04:22:23.327Z,3.67
2022-10-05T04:24:54.587Z,3.55
2022-10-05T04:27:24.472Z,3.38
2022-10-05T04:30:09.036Z,3.53
2022-10-05T04:32:38.128Z,3.85
2022-10-05T04:35:25.750Z,3.72
2022-10-05T04:37:53.171Z,3.53
2022-10-05T04:40:39.401Z,3.70
2022-10-05T04:45:53.604Z,3.05
2022-10-05T04:48:24.666Z,3.45
2022-10-05T04:51:11.311Z,3.78
2022-10-05T04:53:50.392Z,3.45
2022-10-05T04:56:18.016Z,3.28
2022-10-05T04:59:00.273Z,3.38
2022-10-05T05:02:01.381Z,3.95
2022-10-05T05:04:40.706Z,3.90
2022-10-05T05:07:27.788Z,3.53
2022-10-05T05:10:07.628Z,3.40
2022-10-05T05:12:34.973Z,3.75
2022-10-05T05:15:46.570Z,3.72
2022-10-05T05:18:23.461Z,3.70
2022-10-05T05:20:50.787Z,3.40
2022-10-05T05:23:37.717Z,3.75
2022-10-05T05:26:15.998Z,3.25
2022-10-05T05:28:51.514Z,3.67
2022-10-05T05:31:21.944Z,4.50
2022-10-05T05:34:08.782Z,3.70
2022-10-05T05:36:56.871Z,3.33
2022-10-05T05:39:26.660Z,3.97
2022-10-05T05:41:58.624Z,4.40
2022-10-05T05:44:27.434Z,3.60
2022-10-05T05:47:17.391Z,4.22
2022-10-05T05:49:54.794Z,4.00
2022-10-05T05:52:26.580Z,4.53
2022-10-05T05:54:54.173Z,4.93
2022-10-05T05:57:24.868Z,6.18
2022-10-05T06:00:05.639Z,5.78
2022-10-05T06:02:49.887Z,4.90
2022-10-05T06:05:29.534Z,5.65
2022-10-05T06:07:59.433Z,5.55
2022-10-05T06:10:31.346Z,5.82
2022-10-05T06:15:34.664Z,5.28
2022-10-05T06:18:05.459Z,6.80
2022-10-05T06:20:36.076Z,5.20
2022-10-05T06:23:05.993Z,5.30
2022-10-05T06:25:45.713Z,5.60
2022-10-05T06:28:16.065Z,5.93
2022-10-05T06:31:26.826Z,5.55
2022-10-05T06:34:42.962Z,5.88
2022-10-05T06:37:20.777Z,4.88
2022-10-05T06:40:00.058Z,5.78
2022-10-05T06:42:31.058Z,5.18
2022-10-05T06:45:40.818Z,4.68
2022-10-05T06:48:26.097Z,5.35
2022-10-05T06:51:38.966Z,6.00
2022-10-05T06:54:19.842Z,5.78
2022-10-05T06:56:51.981Z,5.93
2022-10-05T06:59:20.027Z,5.43
2022-10-05T07:01:59.966Z,5.60
2022-10-05T07:04:46.018Z,6.22
2022-10-05T07:07:15.204Z,5.97
2022-10-05T07:10:09.298Z,5.70
2022-10-05T07:12:39.594Z,5.50
2022-10-05T07:15:25.151Z,5.72
2022-10-05T07:18:00.627Z,5.70
2022-10-05T07:20:33.014Z,5.53
2022-10-05T07:23:29.520Z,5.60
2022-10-05T07:25:59.927Z,5.30
2022-10-05T07:28:30.788Z,6.00
2022-10-05T07:31:14.507Z,5.85
2022-10-05T07:33:46.695Z,6.57
2022-10-05T07:36:55.077Z,6.88
2022-10-05T07:39:42.171Z,7.15
2022-10-05T07:42:26.114Z,6.88
2022-10-05T07:45:04.118Z,7.65
2022-10-05T07:47:41.317Z,7.22
2022-10-05T07:50:09.212Z,7.28
2022-10-05T07:52:36.501Z,7.68
2022-10-05T07:55:18.756Z,7.82
2022-10-05T07:57:55.169Z,7.30
2022-10-05T08:00:28.223Z,7.13
2022-10-05T08:03:08.157Z,7.47
2022-10-05T08:05:37.886Z,7.40
2022-10-05T08:08:07.672Z,8.23
2022-10-05T08:10:37.977Z,7.70
2022-10-05T08:13:08.620Z,7.65
2022-10-05T08:15:40.247Z,7.25
2022-10-05T08:18:19.791Z,8.20
2022-10-05T08:20:58.285Z,7.15
2022-10-05T08:23:38.686Z,6.38
2022-10-05T08:26:11.106Z,5.90
2022-10-05T08:29:01.562Z,5.30
2022-10-05T08:31:39.464Z,5.22
2022-10-05T08:34:21.132Z,6.15
2022-10-05T08:37:09.481Z,6.15
2022-10-05T08:39:51.383Z,6.65
2022-10-05T08:42:31.093Z,5.97
2022-10-05T08:45:17.849Z,5.72
2022-10-05T08:47:59.652Z,5.47
2022-10-05T08:50:42.247Z,6.28
2022-10-05T08:53:47.492Z,5.25
2022-10-05T08:56:19.739Z,4.82
2022-10-05T08:59:06.191Z,5.85
2022-10-05T09:01:45.808Z,5.70
2022-10-05T09:04:20.457Z,5.50
2022-10-05T09:07:06.511Z,5.28
2022-10-05T09:09:33.672Z,5.93
2022-10-05T09:12:19.011Z,5.25
2022-10-05T09:15:24.390Z,4.85
2022-10-05T09:18:08.042Z,5.10
2022-10-05T09:20:35.273Z,5.22
2022-10-05T09:23:21.512Z,5.07
2022-10-05T09:26:07.847Z,5.25
2022-10-05T09:28:38.538Z,5.40
2022-10-05T09:31:18.175Z,5.05
2022-10-05T09:34:04.373Z,4.75
2022-10-05T09:36:50.529Z,4.00
2022-10-05T09:39:50.535Z,5.22
2022-10-05T09:42:36.287Z,4.82
2022-10-05T09:45:22.186Z,4.45
2022-10-05T09:48:26.324Z,4.28
2022-10-05T09:51:16.656Z,4.30
2022-10-05T09:53:53.452Z,4.15
2022-10-05T09:56:39.514Z,3.72
2022-10-05T09:59:25.058Z,4.03
2022-10-05T10:02:01.453Z,3.83
2022-10-05T10:04:54.013Z,4.05
2022-10-05T10:07:22.334Z,3.75
2022-10-05T10:09:49.532Z,3.60
2022-10-05T10:12:28.979Z,3.55
2022-10-05T10:15:02.658Z,3.33
2022-10-05T10:17:42.763Z,3.50
2022-10-05T10:20:16.523Z,2.90
2022-10-05T10:23:01.560Z,2.90
2022-10-05T10:25:44.534Z,3.40
2022-10-05T10:28:14.629Z,3.10
2022-10-05T10:30:45.422Z,3.15
2022-10-05T10:33:15.744Z,3.65
2022-10-05T10:35:51.459Z,3.00
2022-10-05T10:38:37.611Z,2.90
2022-10-05T10:41:04.793Z,2.78
2022-10-05T10:43:31.989Z,2.80
2022-10-05T10:46:03.467Z,3.17
2022-10-05T10:48:30.900Z,3.22
2022-10-05T10:51:11.151Z,3.10
2022-10-05T10:53:58.179Z,3.78
2022-10-05T10:56:43.987Z,2.90
2022-10-05T10:59:14.570Z,2.95
2022-10-05T11:02:01.026Z,3.70
2022-10-05T11:07:14.332Z,2.60
2022-10-05T11:09:56.223Z,2.88
2022-10-05T11:12:37.758Z,2.65
2022-10-05T11:15:23.808Z,2.55
2022-10-05T11:18:11.100Z,2.42
2022-10-05T11:21:13.884Z,2.70
2022-10-05T11:23:50.133Z,2.90
2022-10-05T11:26:27.955Z,2.60
2022-10-05T11:29:01.186Z,2.50
2022-10-05T11:31:58.264Z,2.28
2022-10-05T11:34:25.568Z,2.72
2022-10-05T11:36:55.606Z,2.50
2022-10-05T11:39:33.728Z,3.00
2022-10-05T11:42:14.093Z,2.80
2022-10-05T11:45:11.784Z,2.45
2022-10-05T11:47:51.231Z,2.38
2022-10-05T11:50:25.635Z,2.15
2022-10-05T11:52:55.873Z,2.40
2022-10-05T11:55:27.172Z,2.15
2022-10-05T11:58:07.697Z,2.40
2022-10-05T12:00:40.628Z,2.25
2022-10-05T12:03:26.586Z,2.25
2022-10-05T12:05:56.831Z,2.03
2022-10-05T12:08:42.924Z,1.90
2022-10-05T12:11:28.553Z,2.22
2022-10-05T12:14:01.533Z,2.17
2022-10-05T12:16:41.877Z,2.33
2022-10-05T12:19:18.444Z,2.20
2022-10-05T12:21:49.463Z,1.83
2022-10-05T12:24:44.862Z,1.90
2022-10-05T12:27:14.188Z,1.80
2022-10-05T12:29:53.471Z,1.98
2022-10-05T12:32:24.177Z,2.28
2022-10-05T12:35:01.512Z,1.98
2022-10-05T12:37:37.951Z,1.90
2022-10-05T12:40:06.245Z,1.77
2022-10-05T12:42:41.967Z,2.10
2022-10-05T12:45:18.354Z,2.25
2022-10-05T12:47:58.815Z,1.83
2022-10-05T12:50:32.887Z,2.05
2022-10-05T12:53:00.237Z,2.00
2022-10-05T12:55:45.560Z,1.90
2022-10-05T12:58:34.822Z,1.80
2022-10-05T13:01:26.517Z,1.77
2022-10-05T13:04:00.422Z,2.03
2022-10-05T13:06:39.377Z,1.90
2022-10-05T13:09:23.563Z,1.98
2022-10-05T13:11:54.741Z,2.35
2022-10-05T13:14:22.267Z,2.00
2022-10-05T13:17:04.981Z,2.40
2022-10-05T13:19:47.689Z,1.80
2022-10-05T13:22:33.542Z,1.88
2022-10-05T13:25:00.773Z,1.75
2022-10-05T13:27:31.774Z,2.30
2022-10-05T13:30:15.095Z,1.90
2022-10-05T13:33:06.956Z,2.30
2022-10-05T13:35:45.811Z,2.10
2022-10-05T13:38:47.206Z,1.83
2022-10-05T13:41:24.503Z,1.77
2022-10-05T13:43:51.740Z,1.98
2022-10-05T13:46:25.060Z,1.90
2022-10-05T13:48:57.139Z,1.70
2022-10-05T13:51:45.776Z,1.70
2022-10-05T13:54:44.445Z,1.58
2022-10-05T13:58:03.144Z,1.65
2022-10-05T14:00:34.055Z,1.63
2022-10-05T14:03:02.318Z,1.40
2022-10-05T14:05:31.075Z,1.27
2022-10-05T14:08:16.719Z,1.27
2022-10-05T14:10:47.727Z,1.55
2022-10-05T14:13:26.605Z,1.50
2022-10-05T14:15:59.525Z,1.27
2022-10-05T14:18:29.709Z,1.80
2022-10-05T14:21:00.927Z,1.58
2022-10-05T14:23:28.212Z,1.48
2022-10-05T14:25:56.687Z,1.38
2022-10-05T14:28:29.732Z,1.20
2022-10-05T14:31:02.593Z,1.60
2022-10-05T14:33:34.903Z,1.27
2022-10-05T14:36:02.530Z,1.40
2022-10-05T14:39:02.340Z,1.42
2022-10-05T14:41:33.972Z,1.55
2022-10-05T14:44:13.318Z,1.58
2022-10-05T14:46:52.970Z,1.77
2022-10-05T14:49:27.208Z,1.40
2022-10-05T14:51:56.174Z,1.45
2022-10-05T14:54:55.508Z,1.27
2022-10-05T14:57:34.144Z,1.60
2022-10-05T15:00:13.284Z,1.52
2022-10-05T15:02:42.567Z,1.45
2022-10-05T15:05:24.796Z,1.70
2022-10-05T15:07:57.231Z,1.40
2022-10-05T15:10:27.322Z,1.23
2022-10-05T15:12:58.816Z,1.65
2022-10-05T15:15:44.423Z,1.25
2022-10-05T15:18:27.237Z,1.85
2022-10-05T15:21:24.112Z,1.58
2022-10-05T15:24:00.051Z,1.25
2022-10-05T15:26:27.244Z,1.50
2022-10-05T15:29:26.108Z,1.33
2022-10-05T15:32:23.491Z,1.40
2022-10-05T15:35:20.300Z,1.20
2022-10-05T15:37:57.778Z,1.55
2022-10-05T15:40:33.479Z,1.30
2022-10-05T15:43:50.268Z,1.73
2022-10-05T15:46:49.503Z,1.20
2022-10-05T15:49:29.790Z,1.15
2022-10-05T15:52:48.232Z,1.27
2022-10-05T15:55:33.279Z,1.40
2022-10-05T15:58:22.055Z,1.30
2022-10-05T16:00:57.630Z,1.50
2022-10-05T16:03:25.327Z,1.45
2022-10-05T16:06:11.491Z,1.50
2022-10-05T16:09:19.359Z,1.52
2022-10-05T16:11:46.534Z,1.45
2022-10-05T16:14:13.796Z,1.00
2022-10-05T16:17:21.291Z,1.35
2022-10-05T16:19:53.879Z,1.30
2022-10-05T16:22:47.324Z,1.27
2022-10-05T16:25:22.517Z,1.33
2022-10-05T16:28:10.590Z,1.42
2022-10-05T16:31:26.427Z,1.55
2022-10-05T16:34:07.353Z,1.52
2022-10-05T16:37:06.208Z,1.50
2022-10-05T16:39:33.408Z,1.30
2022-10-05T16:42:30.605Z,1.30
2022-10-05T16:45:18.663Z,1.30
2022-10-05T16:48:21.812Z,1.30
2022-10-05T16:51:12.986Z,1.52
2022-10-05T16:54:03.536Z,1.40
2022-10-05T16:56:41.338Z,1.30
2022-10-05T16:59:26.584Z,1.33
2022-10-05T17:02:00.975Z,1.38
2022-10-05T17:05:01.460Z,1.77
2022-10-05T17:07:44.438Z,1.45
2022-10-05T17:10:29.696Z,1.13
2022-10-05T17:13:34.169Z,1.65
2022-10-05T17:16:12.746Z,1.80
2022-10-05T17:18:40.485Z,1.85
2022-10-05T17:21:34.786Z,2.05
2022-10-05T17:24:24.727Z,1.77
2022-10-05T17:26:57.248Z,1.98
2022-10-05T17:29:28.080Z,2.42
2022-10-05T17:32:02.564Z,2.05
2022-10-05T17:34:34.315Z,1.98
2022-10-05T17:37:32.174Z,1.98
2022-10-05T17:39:59.635Z,1.67
2022-10-05T17:42:27.675Z,1.92
2022-10-05T17:44:58.376Z,2.03
2022-10-05T17:47:55.985Z,2.10
2022-10-05T17:50:56.833Z,2.05
2022-10-05T17:53:56.013Z,1.70
2022-10-05T17:56:23.555Z,1.92
2022-10-05T17:58:54.553Z,2.53
2022-10-05T18:01:30.437Z,1.88
2022-10-05T18:06:37.720Z,1.88
2022-10-05T18:09:17.471Z,2.28
2022-10-05T18:11:46.028Z,1.90
2022-10-05T18:14:25.583Z,2.15
2022-10-05T18:16:59.427Z,2.42
2022-10-05T18:19:32.211Z,2.05
2022-10-05T18:22:04.597Z,2.28
2022-10-05T18:24:53.196Z,2.53
2022-10-05T18:27:34.158Z,2.10
2022-10-05T18:30:07.745Z,2.00
2022-10-05T18:32:43.847Z,2.05
2022-10-05T18:35:17.021Z,2.15
2022-10-05T18:37:50.511Z,2.10
2022-10-05T18:40:44.922Z,2.00
2022-10-05T18:43:41.088Z,1.83
2022-10-05T18:46:24.283Z,1.83
2022-10-05T18:49:28.921Z,1.45
2022-10-05T18:51:56.284Z,1.70
2022-10-05T18:54:26.589Z,1.42
2022-10-05T18:56:54.258Z,1.67
2022-10-05T18:59:24.201Z,1.70
2022-10-05T19:01:59.724Z,1.65
2022-10-05T19:04:27.144Z,1.38
2022-10-05T19:07:20.125Z,1.90
2022-10-05T19:09:56.822Z,1.35
2022-10-05T19:12:41.279Z,1.50
2022-10-05T19:15:19.380Z,1.30
2022-10-05T19:17:49.822Z,1.33
2022-10-05T19:20:34.162Z,1.50
2022-10-05T19:23:30.966Z,1.40
2022-10-05T19:26:43.612Z,1.33
2022-10-05T19:29:35.318Z,1.52
2022-10-05T19:32:28.142Z,1.30
2022-10-05T19:35:31.754Z,1.80
2022-10-05T19:38:29.060Z,1.42
2022-10-05T19:41:16.325Z,1.27
2022-10-05T19:44:05.534Z,1.17
2022-10-05T19:46:35.335Z,1.50
2022-10-05T19:49:02.203Z,1.20
2022-10-05T19:51:31.344Z,1.33
2022-10-05T19:54:02.221Z,1.75
2022-10-05T19:56:33.642Z,1.25
2022-10-05T19:59:13.286Z,1.38
2022-10-05T20:01:42.263Z,1.50
2022-10-05T20:04:10.542Z,1.75
2022-10-05T20:06:48.816Z,1.95
2022-10-05T20:09:21.362Z,1.20
2022-10-05T20:11:52.964Z,1.50
2022-10-05T20:14:29.905Z,1.20
2022-10-05T20:17:52.293Z,1.30
2022-10-05T20:20:34.388Z,1.30
2022-10-05T20:23:28.033Z,1.65
2022-10-05T20:26:13.254Z,1.42
2022-10-05T20:28:40.472Z,1.25
2022-10-05T20:31:08.329Z,1.25
2022-10-05T20:33:35.177Z,1.30
2022-10-05T20:36:03.714Z,1.23
2022-10-05T20:38:33.699Z,1.10
2022-10-05T20:41:03.098Z,1.20
2022-10-05T20:43:30.282Z,1.25
2022-10-05T20:45:57.790Z,1.10
2022-10-05T20:48:26.306Z,1.13
2022-10-05T20:50:54.233Z,1.15
2022-10-05T20:53:21.416Z,1.25
2022-10-05T20:55:48.663Z,1.10
2022-10-05T20:58:16.315Z,1.35
2022-10-05T21:01:02.198Z,1.42
2022-10-05T21:03:29.404Z,1.52
2022-10-05T21:05:56.673Z,1.10
2022-10-05T21:08:25.135Z,0.90
2022-10-05T21:10:52.591Z,1.42
2022-10-05T21:13:19.788Z,1.15
2022-10-05T21:15:46.988Z,1.15
2022-10-05T21:18:15.706Z,1.10
2022-10-05T21:20:42.919Z,1.25
2022-10-05T21:23:12.188Z,1.30
2022-10-05T21:25:39.449Z,1.20
2022-10-05T21:28:06.701Z,1.38
2022-10-05T21:30:33.533Z,1.48
2022-10-05T21:33:00.723Z,1.20
2022-10-05T21:35:27.925Z,1.33
2022-10-05T21:37:54.696Z,1.30
2022-10-05T21:40:23.898Z,1.40
2022-10-05T21:42:51.395Z,1.40
2022-10-05T21:45:18.200Z,1.30
2022-10-05T21:47:45.402Z,1.05
2022-10-05T21:50:12.704Z,1.60
2022-10-05T21:52:39.929Z,1.35
2022-10-05T21:55:07.804Z,1.42
2022-10-05T21:57:35.290Z,1.40
2022-10-05T22:00:02.443Z,1.13
2022-10-05T22:02:33.777Z,1.20
2022-10-05T22:05:01.033Z,1.77
2022-10-05T22:07:29.055Z,1.50
2022-10-05T22:09:56.350Z,1.38
2022-10-05T22:12:24.782Z,1.35
2022-10-05T22:14:52.007Z,1.55
2022-10-05T22:17:25.314Z,1.23
2022-10-05T22:19:52.521Z,1.60
2022-10-05T22:22:19.701Z,1.40
2022-10-05T22:24:46.935Z,1.27
2022-10-05T22:27:14.601Z,1.90
2022-10-05T22:29:41.994Z,1.35
2022-10-05T22:32:09.371Z,1.60
2022-10-05T22:34:36.684Z,1.30
2022-10-05T22:37:05.922Z,1.42
2022-10-05T22:39:33.160Z,1.20
2022-10-05T22:41:59.955Z,1.23
2022-10-05T22:44:27.151Z,1.25
2022-10-05T22:46:53.912Z,1.20
2022-10-05T22:49:21.298Z,1.73
2022-10-05T22:51:49.259Z,1.40
2022-10-05T22:54:16.563Z,1.52
2022-10-05T22:56:44.017Z,1.48
2022-10-05T22:59:11.325Z,1.60
2022-10-05T23:01:38.581Z,1.58
2022-10-05T23:04:07.887Z,1.38
2022-10-05T23:06:34.778Z,1.50
2022-10-05T23:09:01.954Z,1.70
2022-10-05T23:11:30.169Z,1.50
2022-10-05T23:13:57.280Z,1.33
2022-10-05T23:16:26.962Z,1.33
2022-10-05T23:18:55.335Z,1.58
2022-10-05T23:21:24.163Z,1.70
2022-10-05T23:23:51.417Z,1.60
2022-10-05T23:26:21.803Z,1.50
2022-10-05T23:28:50.006Z,1.65
2022-10-05T23:31:22.742Z,1.65
2022-10-05T23:33:50.046Z,1.40
2022-10-05T23:36:19.785Z,1.27
2022-10-05T23:38:47.191Z,1.10
2022-10-05T23:41:15.998Z,1.20
2022-10-05T23:43:43.289Z,1.50
2022-10-05T23:46:10.830Z,1.55
2022-10-05T23:48:40.433Z,1.60
2022-10-05T23:51:09.016Z,1.30
2022-10-05T23:53:35.941Z,1.45
2022-10-05T23:56:03.368Z,1.73
2022-10-05T23:58:30.797Z,1.90
